Turis, Spain
Current Conditions -  °F | °C
As of 8:30 AM on Thursday 23 Oct 2014 (Local Time) from LEVC Reporting Station
Clear Clear  
Wind Chill: 52°   Ceiling: Unl
Heat Index: 52°   Visibility: 6mi
Dew Point: 43°   Wind: 3mph
Humidity: 71%   Direction: 260°W
Pressure: 30.18"   Gusts: NA
Location:  39.38°N, 0.7°W
Report Text: LEVC 230630Z 26003KT CAVOK 11/06 Q1022 NOSIG
Loading
Personal Weather Stations






























Interactive Weather Map
Tropical Storm Tracking
New forecast layout! Learn more

10-Day Weather Forecast

Advertisements
Track Severe Weather on mobile